Time;durP1;ratioP1;P1;durP2;ratioP2;P2;SDS_P1;SDS_P2;PMS_P1;PMS_P2;Temp;Humidity;BMP_temperature;BMP_pressure;BME280_temperature;BME280_humidity;BME280_pressure;Samples;Min_cycle;Max_cycle;Signal;HPM_P1;HPM_P2
2022/02/18 00:00:44;;;;;;;4.80;1.35;;;;;;;;;;6191462;23;20005;-94
2022/02/18 00:03:10;;;;;;;6.40;2.78;;;;;;;;;;6190347;23;20005;-95
2022/02/18 00:05:37;;;;;;;2.58;1.25;;;;;;;;;;6188736;23;20001;-95
2022/02/18 00:08:04;;;;;;;2.47;1.33;;;;;;;;;;6188994;23;20073;-95
2022/02/18 00:10:30;;;;;;;5.57;1.40;;;;;;;;;;6190356;23;20009;-95
2022/02/18 00:12:56;;;;;;;1.73;1.02;;;;;;;;;;6189163;23;20005;-96
2022/02/18 00:15:22;;;;;;;7.15;1.88;;;;;;;;;;6187889;23;20440;-96
2022/02/18 00:17:48;;;;;;;6.60;2.03;;;;;;;;;;6162817;23;20024;-95
2022/02/18 00:20:14;;;;;;;3.17;1.17;;;;;;;;;;6187104;23;20001;-96
2022/02/18 00:22:40;;;;;;;5.05;0.90;;;;;;;;;;6186965;23;20447;-95
2022/02/18 00:25:08;;;;;;;6.00;1.88;;;;;;;;;;6187291;23;20009;-94
2022/02/18 00:27:35;;;;;;;8.65;2.00;;;;;;;;;;6187557;23;20012;-95
2022/02/18 00:30:03;;;;;;;3.38;1.90;;;;;;;;;;6188567;23;20486;-95
2022/02/18 00:32:29;;;;;;;2.85;1.02;;;;;;;;;;6187050;23;20001;-96
2022/02/18 00:34:55;;;;;;;9.15;2.08;;;;;;;;;;6185621;23;20013;-96
2022/02/18 00:37:21;;;;;;;2.58;1.85;;;;;;;;;;6187699;23;19993;-96
2022/02/18 00:39:47;;;;;;;6.50;1.90;;;;;;;;;;6188470;23;20321;-95
2022/02/18 00:42:14;;;;;;;4.32;1.52;;;;;;;;;;6188908;23;20001;-96
2022/02/18 00:44:40;;;;;;;1.35;1.25;;;;;;;;;;6189014;23;20001;-95
2022/02/18 00:47:06;;;;;;;3.08;1.70;;;;;;;;;;6190538;23;20387;-96
2022/02/18 00:49:32;;;;;;;2.75;1.58;;;;;;;;;;6190371;23;20084;-96
2022/02/18 00:54:58;;;;;;;2.63;1.30;;;;;;;;;;6206156;23;20036;-96
2022/02/18 00:57:47;;;;;;;1.92;1.23;;;;;;;;;;6184460;23;20009;-96
2022/02/18 01:00:55;;;;;;;5.70;1.98;;;;;;;;;;6096469;23;20037;-96
2022/02/18 01:03:34;;;;;;;1.83;1.20;;;;;;;;;;6114125;23;20010;-96
2022/02/18 01:09:30;;;;;;;4.32;1.55;;;;;;;;;;6020329;23;20022;-95
2022/02/18 01:13:09;;;;;;;3.38;1.60;;;;;;;;;;6058949;23;20051;-96
2022/02/18 01:19:21;;;;;;;3.95;0.95;;;;;;;;;;5954591;24;20061;-96
2022/02/18 01:22:24;;;;;;;6.07;1.52;;;;;;;;;;5970510;24;20012;-96
2022/02/18 01:25:09;;;;;;;9.77;1.75;;;;;;;;;;5975015;24;20531;-95
2022/02/18 01:27:58;;;;;;;4.22;1.63;;;;;;;;;;5952293;24;20001;-96
2022/02/18 01:30:48;;;;;;;4.13;1.65;;;;;;;;;;5892588;24;20014;-96
2022/02/18 01:33:53;;;;;;;3.17;1.70;;;;;;;;;;5892248;24;20092;-96
2022/02/18 01:37:18;;;;;;;4.05;1.30;;;;;;;;;;5892411;24;20022;-96
2022/02/18 01:40:24;;;;;;;7.15;2.90;;;;;;;;;;5947266;23;20013;-96
2022/02/18 01:49:08;;;;;;;1.48;1.00;;;;;;;;;;6022449;23;20097;-96
2022/02/18 01:51:57;;;;;;;1.23;1.13;;;;;;;;;;5999578;24;20491;-96
2022/02/18 01:55:17;;;;;;;4.10;0.88;;;;;;;;;;6021089;23;20103;-96
2022/02/18 01:58:27;;;;;;;3.40;1.42;;;;;;;;;;6028166;23;20012;-95
2022/02/18 02:01:41;;;;;;;3.78;1.73;;;;;;;;;;6031197;23;20008;-96
2022/02/18 02:04:14;;;;;;;7.25;1.52;;;;;;;;;;6001481;24;20205;-96
2022/02/18 02:07:03;;;;;;;6.78;1.40;;;;;;;;;;5977172;24;20008;-96
2022/02/18 02:10:08;;;;;;;5.53;1.45;;;;;;;;;;6005917;23;20167;-96
2022/02/18 02:12:50;;;;;;;2.42;1.00;;;;;;;;;;6053934;23;20003;-96
2022/02/18 02:15:26;;;;;;;1.33;1.10;;;;;;;;;;6054358;23;20008;-96
2022/02/18 02:18:19;;;;;;;3.97;2.35;;;;;;;;;;6052776;23;20012;-96
2022/02/18 02:21:01;;;;;;;2.65;1.52;;;;;;;;;;6031902;23;20003;-95
2022/02/18 02:23:57;;;;;;;0.95;0.80;;;;;;;;;;6045806;23;20007;-96
2022/02/18 02:26:47;;;;;;;2.13;1.10;;;;;;;;;;6031387;23;20034;-95
2022/02/18 02:29:20;;;;;;;2.92;1.90;;;;;;;;;;6053404;23;20038;-96
2022/02/18 02:31:50;;;;;;;5.35;1.08;;;;;;;;;;6030421;23;20010;-96
2022/02/18 02:34:52;;;;;;;1.27;1.17;;;;;;;;;;6055527;23;20011;-96
2022/02/18 02:37:34;;;;;;;2.00;1.17;;;;;;;;;;6055473;23;20018;-96
2022/02/18 02:40:06;;;;;;;7.20;2.08;;;;;;;;;;6082796;23;20010;-96
2022/02/18 02:42:40;;;;;;;1.35;1.20;;;;;;;;;;6177154;23;20056;-96
2022/02/18 02:45:27;;;;;;;3.45;1.17;;;;;;;;;;6180099;23;20060;-96
2022/02/18 02:48:00;;;;;;;6.25;1.42;;;;;;;;;;6232002;23;20008;-94
2022/02/18 02:50:34;;;;;;;2.03;1.13;;;;;;;;;;6231623;23;20016;-95
2022/02/18 02:53:14;;;;;;;6.53;1.33;;;;;;;;;;6203551;23;20013;-96
2022/02/18 02:56:14;;;;;;;5.45;1.20;;;9.40;95.60;;;;;;6156777;23;20021;-96
2022/02/18 02:59:01;;;;;;;2.58;1.60;;;;;;;;;;6202913;23;20053;-96
2022/02/18 03:01:34;;;;;;;2.63;1.50;;;;;;;;;;6200861;23;20064;-96
2022/02/18 03:04:09;;;;;;;1.27;0.93;;;;;;;;;;6194514;23;20005;-96
2022/02/18 03:06:39;;;;;;;1.95;1.30;;;;;;;;;;6153012;23;20089;-96
2022/02/18 03:09:26;;;;;;;6.00;2.30;;;;;;;;;;6193552;23;20017;-96
2022/02/18 03:12:03;;;;;;;0.70;0.70;;;;;;;;;;6124056;23;20024;-95
2022/02/18 03:14:51;;;;;;;1.20;1.10;;;;;;;;;;6198963;23;20036;-96
2022/02/18 03:17:25;;;;;;;1.23;0.88;;;;;;;;;;6172845;23;20005;-96
2022/02/18 03:20:07;;;;;;;1.52;1.27;;;;;;;;;;6222547;23;20019;-95
2022/02/18 03:22:40;;;;;;;1.13;0.80;;;;;;;;;;6200803;23;20496;-96
2022/02/18 03:25:13;;;;;;;1.40;1.10;;;;;;;;;;6201844;23;20009;-96
2022/02/18 03:27:47;;;;;;;4.57;1.20;;;;;;;;;;6196559;23;20025;-96
2022/02/18 03:30:37;;;;;;;0.95;0.85;;;;;;;;;;6199116;23;20016;-96
2022/02/18 03:33:33;;;;;;;0.95;0.68;;;;;;;;;;6175748;23;20005;-95
2022/02/18 03:36:06;;;;;;;2.22;1.13;;;;;;;;;;6184106;23;20016;-96
2022/02/18 03:38:54;;;;;;;1.65;0.95;;;;;;;;;;6198107;23;20028;-96
2022/02/18 03:41:42;;;;;;;0.73;0.73;;;;;;;;;;6201603;23;20021;-96
2022/02/18 03:44:20;;;;;;;1.65;1.10;;;;;;;;;;6185609;23;20049;-96
2022/02/18 03:47:05;;;;;;;2.42;1.05;;;;;;;;;;6201740;23;20005;-95
2022/02/18 03:49:44;;;;;;;1.25;1.15;;;;;;;;;;6199555;23;20091;-96
2022/02/18 03:52:35;;;;;;;2.05;1.30;;;;;;;;;;6197510;23;20031;-95
2022/02/18 03:55:54;;;;;;;1.08;1.00;;;;;;;;;;6200741;23;20028;-96
2022/02/18 03:58:26;;;;;;;0.65;0.65;;;;;;;;;;6198926;23;20073;-96
2022/02/18 04:01:02;;;;;;;7.93;0.80;;;;;;;;;;6198191;23;20006;-96
2022/02/18 04:03:37;;;;;;;4.32;0.90;;;;;;;;;;6197418;23;20016;-96
2022/02/18 04:06:11;;;;;;;1.00;0.70;;;;;;;;;;6198078;23;20008;-96
2022/02/18 04:08:42;;;;;;;4.47;0.80;;;;;;;;;;6223134;23;20013;-96
2022/02/18 04:11:12;;;;;;;0.73;0.73;;;;;;;;;;6197005;23;20009;-96
2022/02/18 04:13:50;;;;;;;1.52;0.98;;;;;;;;;;6196190;23;20069;-96
2022/02/18 04:16:16;;;;;;;1.10;0.40;;;;;;;;;;6195226;23;20009;-96
2022/02/18 04:18:44;;;;;;;1.65;0.82;;;;;;;;;;6198539;23;20001;-96
2022/02/18 04:21:12;;;;;;;0.82;0.60;;;;;;;;;;6196616;23;20009;-96
2022/02/18 04:23:41;;;;;;;0.88;0.85;;;;;;;;;;6197935;23;20005;-96
2022/02/18 04:26:07;;;;;;;0.70;0.70;;;;;;;;;;6197160;23;20012;-95
2022/02/18 04:28:43;;;;;;;1.42;1.30;;;;;;;;;;6197669;23;20024;-96
2022/02/18 04:31:21;;;;;;;1.48;0.82;;;;;;;;;;6198007;23;20001;-96
2022/02/18 04:33:49;;;;;;;5.35;0.80;;;;;;;;;;6196598;23;20009;-96
2022/02/18 04:36:19;;;;;;;1.05;0.60;;;;;;;;;;6195633;23;20336;-96
2022/02/18 04:38:47;;;;;;;5.82;0.68;;;;;;;;;;6199016;23;20035;-96
2022/02/18 04:41:22;;;;;;;0.88;0.88;;;;;;;;;;6198088;23;20005;-96
2022/02/18 04:43:51;;;;;;;1.73;0.90;;;;;;;;;;6197318;23;20017;-96
2022/02/18 04:46:22;;;;;;;1.30;1.08;;;;;;;;;;6190933;23;19996;-96
2022/02/18 04:48:57;;;;;;;0.70;0.65;;;;;;;;;;6198513;23;20005;-96
2022/02/18 04:51:26;;;;;;;1.73;0.82;;;;;;;;;;6195586;23;20449;-95
2022/02/18 04:53:52;;;;;;;0.77;0.77;;;;;;;;;;6191078;23;20046;-96
2022/02/18 04:56:19;;;;;;;4.57;0.98;;;;;;;;;;6189879;23;20396;-95
2022/02/18 04:58:45;;;;;;;0.70;0.70;;;;;;;;;;6189688;23;20005;-96
2022/02/18 05:01:16;;;;;;;1.45;1.20;;;;;;;;;;6189162;23;20005;-96
2022/02/18 05:03:42;;;;;;;1.48;0.65;;;;;;;;;;6188442;23;20008;-96
2022/02/18 05:06:09;;;;;;;1.85;1.35;;;;;;;;;;6188760;23;20031;-96
2022/02/18 05:08:35;;;;;;;1.75;1.08;;;;;;;;;;6191288;23;20013;-96
2022/02/18 05:11:02;;;;;;;4.50;1.17;;;;;;;;;;6191301;23;20368;-96
2022/02/18 05:13:29;;;;;;;2.40;1.50;;;;;;;;;;6191914;23;20031;-96
2022/02/18 05:15:56;;;;;;;1.05;0.75;;;;;;;;;;6190578;23;20008;-96
2022/02/18 05:18:23;;;;;;;2.70;2.15;;;;;;;;;;6190075;23;20027;-96
2022/02/18 05:20:49;;;;;;;2.05;1.50;;;;;;;;;;6190322;23;20005;-96
2022/02/18 05:23:15;;;;;;;2.60;1.17;;;;;;;;;;6191667;23;19993;-96
2022/02/18 05:25:41;;;;;;;1.73;1.35;;;;;;;;;;6191579;23;20009;-96
2022/02/18 05:28:07;;;;;;;1.00;0.80;;;;;;;;;;6189316;23;20467;-96
2022/02/18 05:30:37;;;;;;;1.23;0.90;;;;;;;;;;6190762;23;20099;-95
2022/02/18 05:33:04;;;;;;;0.95;0.80;;;;;;;;;;6191432;23;20009;-96
2022/02/18 05:35:31;;;;;;;1.48;0.85;;;;;;;;;;6192055;23;20013;-96
2022/02/18 05:37:57;;;;;;;2.17;1.07;;;;;;;;;;6192169;23;20005;-95
2022/02/18 05:40:23;;;;;;;0.90;0.90;;;;;;;;;;6191150;23;20240;-95
2022/02/18 05:42:50;;;;;;;2.75;1.77;;;;;;;;;;6190824;23;20001;-96
2022/02/18 05:45:17;;;;;;;1.38;1.00;;;;;;;;;;6186767;23;20005;-95
2022/02/18 05:47:43;;;;;;;1.50;1.23;;;;;;;;;;6192520;23;20133;-96
2022/02/18 05:50:11;;;;;;;6.85;1.00;;;;;;;;;;6191249;23;20534;-96
2022/02/18 05:52:40;;;;;;;1.10;0.80;;;;;;;;;;6190670;23;20052;-96
2022/02/18 05:55:06;;;;;;;5.72;1.20;;;;;;;;;;6189839;23;20519;-96
2022/02/18 05:57:32;;;;;;;0.60;0.60;;;;;;;;;;6188628;23;20005;-96
2022/02/18 06:00:01;;;;;;;3.75;1.40;;;;;;;;;;6188257;23;20001;-95
2022/02/18 06:02:27;;;;;;;14.52;4.53;;;;;;;;;;6189624;23;20004;-96
2022/02/18 06:04:53;;;;;;;25.58;8.73;;;;;;;;;;6188178;23;20012;-95
2022/02/18 06:07:19;;;;;;;23.15;6.88;;;;;;;;;;6190112;23;20341;-95
2022/02/18 06:09:45;;;;;;;8.75;4.05;;;;;;;;;;6189424;23;20029;-95
2022/02/18 06:12:11;;;;;;;2.95;2.08;;;;;;;;;;6187385;23;20001;-94
2022/02/18 06:14:37;;;;;;;4.95;1.80;;;;;;;;;;6188748;23;20024;-95
2022/02/18 06:17:09;;;;;;;9.40;2.40;;;;;;;;;;6188679;23;20009;-95
2022/02/18 06:19:35;;;;;;;6.68;2.13;;;;;;;;;;6189538;23;20080;-96
2022/02/18 06:22:01;;;;;;;5.72;2.47;;;;;;;;;;6189042;23;20011;-96
2022/02/18 06:24:27;;;;;;;4.20;1.70;;;;;;;;;;6187293;23;20116;-96
2022/02/18 06:26:53;;;;;;;1.55;1.40;;;;;;;;;;6186888;23;20032;-95
2022/02/18 06:29:20;;;;;;;8.23;1.30;;;;;;;;;;6188649;23;20009;-96
2022/02/18 06:31:47;;;;;;;6.37;2.07;;;;;;;;;;6188851;23;20097;-96
2022/02/18 06:34:13;;;;;;;6.97;1.45;;;;;;;;;;6188038;23;20236;-96
2022/02/18 06:36:39;;;;;;;2.75;1.77;;;;;;;;;;6188511;23;20017;-96
2022/02/18 06:39:07;;;;;;;7.47;3.60;;;;;;;;;;6188003;23;20005;-94
2022/02/18 06:41:33;;;;;;;3.95;2.63;;;;;;;;;;6188304;23;20027;-96
2022/02/18 06:44:00;;;;;;;4.30;2.30;;;;;;;;;;6188472;23;20009;-94
2022/02/18 06:46:26;;;;;;;2.53;2.15;;;;;;;;;;6186590;23;20526;-94
2022/02/18 06:48:52;;;;;;;5.68;2.33;;;;;;;;;;6186366;23;20041;-96
2022/02/18 06:51:18;;;;;;;4.38;2.78;;;;;;;;;;6186628;23;19997;-94
2022/02/18 06:53:44;;;;;;;5.25;3.20;;;;;;;;;;6188376;23;20009;-95
2022/02/18 06:56:10;;;;;;;6.68;5.25;;;;;;;;;;6188146;23;20031;-95
2022/02/18 06:58:36;;;;;;;7.63;5.70;;;;;;;;;;6187692;23;20005;-95
2022/02/18 07:01:03;;;;;;;8.23;5.38;;;;;;;;;;6187239;23;20005;-95
2022/02/18 07:03:29;;;;;;;12.15;5.07;;;;;;;;;;6187664;23;20005;-95
2022/02/18 07:05:57;;;;;;;9.23;3.80;;;;;;;;;;6187353;23;20005;-96
2022/02/18 07:08:23;;;;;;;8.77;4.20;;;;;;;;;;6187879;23;20336;-95
2022/02/18 07:10:49;;;;;;;8.05;3.88;;;;;;;;;;6187718;23;20009;-96
2022/02/18 07:13:15;;;;;;;8.27;5.00;;;;;;;;;;6186475;23;20032;-94
2022/02/18 07:15:42;;;;;;;10.70;6.95;;;;;;;;;;6186989;23;20005;-95
2022/02/18 07:18:09;;;;;;;7.20;6.25;;;;;;;;;;6187463;23;20009;-96
2022/02/18 07:20:36;;;;;;;5.80;3.15;;;;;;;;;;6187023;23;20009;-95
2022/02/18 07:23:02;;;;;;;6.40;3.35;;;;;;;;;;6185767;23;20083;-95
2022/02/18 07:25:28;;;;;;;6.25;3.83;;;;;;;;;;6188036;23;20005;-96
2022/02/18 07:27:59;;;;;;;5.95;3.38;;;;;;;;;;6187621;23;20467;-96
2022/02/18 07:30:26;;;;;;;3.28;2.97;;;;;;;;;;6186994;23;20012;-96
2022/02/18 07:32:53;;;;;;;4.45;1.98;;;;;;;;;;6188445;23;20005;-95
2022/02/18 07:35:20;;;;;;;4.72;2.10;;;;;;;;;;6187929;23;20005;-96
2022/02/18 07:37:49;;;;;;;4.05;2.03;;;;;;;;;;6187939;23;20001;-94
2022/02/18 07:40:15;;;;;;;5.22;2.55;;;;;;;;;;6186036;23;20005;-96
2022/02/18 07:42:42;;;;;;;3.97;3.10;;;;;;;;;;6186507;23;20013;-96
2022/02/18 07:45:08;;;;;;;5.63;3.17;;;;;;;;;;6186900;23;20009;-95
2022/02/18 07:47:34;;;;;;;11.02;2.72;;;;;;;;;;6187674;23;20005;-95
2022/02/18 07:50:00;;;;;;;3.03;1.77;;;;;;;;;;6188697;23;20017;-94
2022/02/18 07:52:27;;;;;;;8.40;2.03;;;;;;;;;;6190236;23;19997;-96
2022/02/18 07:54:56;;;;;;;2.03;1.52;;;;;;;;;;6193851;23;20448;-95
2022/02/18 07:57:23;;;;;;;3.78;2.45;;;;;;;;;;6169688;23;20009;-95
2022/02/18 07:59:53;;;;;;;8.95;3.25;;;;;;;;;;6193795;23;20001;-95
2022/02/18 08:02:20;;;;;;;5.55;2.85;;;;;;;;;;6197617;23;20120;-96
2022/02/18 08:04:48;;;;;;;5.60;2.50;;;;;;;;;;6169312;23;20009;-95
2022/02/18 08:07:16;;;;;;;3.40;2.80;;;;;;;;;;6201456;23;20005;-96
2022/02/18 08:10:04;;;;;;;3.22;1.75;;;;;;;;;;6193733;23;20013;-96
2022/02/18 08:13:09;;;;;;;3.30;1.63;;;;;;;;;;6206849;23;20004;-96
2022/02/18 08:16:32;;;;;;;2.05;1.40;;;;;;;;;;6089168;23;20030;-96
2022/02/18 08:19:14;;;;;;;3.60;2.33;;;;;;;;;;5945955;24;20020;-96
2022/02/18 08:22:05;;;;;;;3.80;2.55;;;;;;;;;;5872698;24;20022;-96
2022/02/18 08:28:27;;;;;;;5.05;3.08;;;;;;;;;;5865443;24;20039;-96
2022/02/18 08:31:46;;;;;;;8.45;4.75;;;;;;;;;;5862641;24;20069;-96
2022/02/18 08:35:09;;;;;;;5.28;3.50;;;;;;;;;;5787640;24;20022;-96
2022/02/18 08:37:57;;;;;;;4.27;2.90;;;;;;;;;;5789227;24;19996;-96
2022/02/18 08:44:27;;;;;;;13.45;3.65;;;;;;;;;;5762112;24;20023;-96
2022/02/18 08:47:13;;;;;;;6.05;3.45;;;;;;;;;;5760564;25;20016;-96
2022/02/18 08:49:51;;;;;;;6.55;4.13;;;;;;;;;;5756643;25;20081;-96
2022/02/18 08:52:25;;;;;;;4.93;3.55;;;;;;;;;;6024696;22;20072;-96
2022/02/18 08:58:24;;;;;;;5.03;2.53;;;;;;;;;;6210798;23;20031;-96
2022/02/18 09:01:31;;;;;;;8.68;2.83;;;;;;;;;;6206427;23;20005;-96
2022/02/18 09:04:03;;;;;;;5.88;2.30;;;;;;;;;;6139584;23;20025;-96
2022/02/18 09:06:52;;;;;;;2.70;1.08;;;;;;;;;;6121857;23;20058;-96
2022/02/18 09:09:49;;;;;;;1.67;0.80;;;;;;;;;;6072775;23;20088;-96
2022/02/18 09:12:41;;;;;;;1.23;0.60;;;;;;;;;;6028744;23;20016;-96
2022/02/18 09:15:19;;;;;;;2.67;0.63;;;;;;;;;;6002201;23;20008;-96
2022/02/18 09:17:47;;;;;;;2.85;1.05;;;;;;;;;;6002380;23;20007;-96
2022/02/18 09:20:25;;;;;;;4.85;1.25;;;;;;;;;;6001888;23;20190;-96
2022/02/18 09:22:58;;;;;;;2.38;1.00;;;;;;;;;;5978412;23;20030;-96
2022/02/18 09:25:36;;;;;;;2.88;1.23;;;;;;;;;;6025331;23;20040;-96
2022/02/18 09:28:03;;;;;;;1.85;1.00;;;;;;;;;;6002604;23;20067;-96
2022/02/18 09:30:34;;;;;;;1.83;0.75;;;;;;;;;;6027073;23;20019;-95
2022/02/18 09:33:37;;;;;;;2.65;1.25;;;23.40;49.70;;;;;;6025061;23;20014;-96
2022/02/18 09:36:07;;;;;;;17.63;1.65;;;;;;;;;;6006035;23;20007;-96
2022/02/18 09:39:00;;;;;;;10.27;1.05;;;;;;;;;;6006464;23;20024;-96
2022/02/18 09:41:54;;;;;;;2.83;0.85;;;;;;;;;;5943723;24;20037;-95
2022/02/18 09:44:28;;;;;;;5.00;1.60;;;;;;;;;;5914560;24;20001;-96
2022/02/18 09:47:13;;;;;;;5.07;0.80;;;;;;;;;;5909338;24;20072;-96
2022/02/18 09:50:01;;;;;;;6.82;1.20;;;;;;;;;;6009240;23;20007;-96
2022/02/18 09:52:57;;;;;;;1.17;0.90;;;;;;;;;;6047832;23;20035;-95
2022/02/18 09:55:27;;;;;;;2.97;0.65;;;;;;;;;;6049502;23;20016;-96
2022/02/18 09:57:58;;;;;;;2.95;1.40;;;;;;;;;;6024567;23;20012;-95
2022/02/18 10:00:29;;;;;;;4.43;1.23;;;;;;;;;;6054302;23;20010;-94
2022/02/18 10:03:00;;;;;;;9.82;0.70;;;;;;;;;;6025128;23;20149;-96
2022/02/18 10:05:55;;;;;;;1.40;1.05;;;;;;;;;;6049151;23;20014;-95
2022/02/18 10:08:28;;;;;;;4.38;1.23;;;;;;;;;;6051976;23;20542;-96
2022/02/18 10:11:01;;;;;;;5.13;1.10;;;;;;;;;;6051385;23;20003;-96
2022/02/18 10:13:38;;;;;;;2.83;0.57;;;;;;;;;;6047581;23;20003;-96
2022/02/18 10:16:17;;;;;;;3.42;0.93;;;;;;;;;;6026244;23;20541;-96
2022/02/18 10:19:00;;;;;;;6.32;0.77;;;;;;;;;;6055119;23;20009;-95
2022/02/18 10:21:33;;;;;;;1.40;0.88;;;;;;;;;;6109163;23;20010;-96
2022/02/18 10:24:14;;;;;;;9.85;2.35;;;;;;;;;;6112253;23;20008;-96
2022/02/18 10:26:42;;;;;;;1.90;0.85;;;;;;;;;;6136962;23;20006;-96
2022/02/18 10:29:09;;;;;;;3.60;0.77;;;;;;;;;;6141023;23;20042;-96
2022/02/18 10:35:04;;;;;;;2.15;0.68;;;;;;;;;;6134416;23;20020;-95
2022/02/18 10:37:57;;;;;;;3.95;0.77;;;;;;;;;;6062526;23;20014;-96
2022/02/18 10:40:25;;;;;;;1.35;0.40;;;;;;;;;;6058059;23;20596;-96
2022/02/18 10:42:54;;;;;;;5.40;1.08;;;;;;;;;;6060049;23;20012;-96
2022/02/18 10:45:36;;;;;;;0.68;0.50;;;;;;;;;;6078059;23;20043;-96
2022/02/18 10:48:13;;;;;;;3.13;0.77;;;;;;;;;;6075042;23;20086;-96
2022/02/18 10:50:44;;;;;;;0.75;0.40;;;;;;;;;;6077435;23;20014;-96
2022/02/18 10:53:16;;;;;;;2.17;0.77;;;;;;;;;;6082382;23;20014;-96
2022/02/18 10:56:02;;;;;;;1.13;0.50;;;;;;;;;;6075555;23;20100;-95
2022/02/18 10:58:29;;;;;;;5.57;1.30;;;;;;;;;;6074888;23;20022;-94
2022/02/18 11:01:07;;;;;;;3.22;0.38;;;;;;;;;;6050374;23;20017;-96
2022/02/18 11:03:39;;;;;;;3.80;0.75;;;;;;;;;;6052029;23;20007;-96
2022/02/18 11:06:26;;;;;;;2.15;0.40;;;;;;;;;;6073572;23;20002;-95
2022/02/18 11:09:18;;;;;;;4.65;0.47;;;;;;;;;;6078315;23;20018;-96
2022/02/18 11:15:08;;;;;;;3.92;0.75;;;;;;;;;;6201067;23;20020;-95
2022/02/18 11:17:39;;;;;;;8.48;2.00;;;;;;;;;;6203914;23;20009;-95
2022/02/18 11:20:13;;;;;;;7.47;1.30;;;;;;;;;;6200830;23;20001;-96
2022/02/18 11:22:40;;;;;;;1.17;0.50;;;;;;;;;;6166888;23;20013;-95
2022/02/18 11:25:08;;;;;;;4.80;1.35;;;;;;;;;;6192024;23;20001;-94
2022/02/18 11:27:36;;;;;;;5.40;0.50;;;;;;;;;;6190595;23;20112;-95
2022/02/18 11:30:02;;;;;;;1.17;0.50;;;;;;;;;;6191147;23;20085;-96
2022/02/18 11:32:31;;;;;;;2.75;0.85;;;;;;;;;;6188930;23;19997;-95
2022/02/18 11:34:58;;;;;;;;;;;;;;;;;;6195713;23;20005;-96
2022/02/18 11:37:43;;;;;;;1.00;0.32;;;;;;;;;;6187876;23;19907;-94
2022/02/18 11:40:15;;;;;;;1.92;0.30;;;;;;;;;;6185168;23;20116;-94
2022/02/18 11:42:42;;;;;;;1.13;1.02;;;;;;;;;;6184488;23;20092;-96
2022/02/18 11:45:18;;;;;;;1.73;0.55;;;;;;;;;;6183477;23;20007;-94
2022/02/18 11:47:47;;;;;;;1.88;0.20;;;;;;;;;;6183660;23;20065;-95
2022/02/18 11:50:16;;;;;;;0.22;0.20;;;;;;;;;;6184856;23;20092;-94
2022/02/18 11:52:48;;;;;;;0.77;0.25;;;;;;;;;;6187172;23;20082;-96
2022/02/18 11:55:30;;;;;;;0.38;0.30;;;;;;;;;;6185907;23;20033;-95
2022/02/18 11:58:04;;;;;;;0.75;0.43;;;;;;;;;;6186766;23;20009;-94
2022/02/18 12:00:49;;;;;;;1.00;0.68;;;;;;;;;;6185729;23;20016;-95
2022/02/18 12:03:16;;;;;;;1.15;0.30;;;;;;;;;;6189247;23;20005;-95
2022/02/18 12:06:01;;;;;;;0.75;0.30;;;;;;;;;;6190585;23;20037;-95
2022/02/18 12:08:31;;;;;;;1.85;0.35;;;;;;;;;;6189361;23;20032;-95
2022/02/18 12:10:59;;;;;;;3.25;0.47;;;;;;;;;;6185860;23;20005;-95
2022/02/18 12:13:25;;;;;;;0.70;0.30;;;;;;;;;;6187823;23;20005;-94
2022/02/18 12:15:58;;;;;;;3.53;0.55;;;;;;;;;;6185680;23;19997;-94
2022/02/18 12:18:27;;;;;;;3.78;0.40;;;;;;;;;;6186977;23;20002;-95
2022/02/18 12:21:20;;;;;;;4.82;1.08;;;;;;;;;;6184581;23;20436;-93
2022/02/18 12:23:46;;;;;;;0.75;0.40;;;;;;;;;;6153949;23;20009;-96
2022/02/18 12:26:27;;;;;;;8.35;1.10;;;;;;;;;;6186397;23;20033;-95
2022/02/18 12:29:13;;;;;;;1.17;0.90;;;;;;;;;;6186355;23;20009;-95
2022/02/18 12:31:52;;;;;;;0.82;0.40;;;;;;;;;;6185441;23;20005;-94
2022/02/18 12:34:28;;;;;;;0.22;0.22;;;;;;;;;;6184478;23;20080;-94
2022/02/18 12:36:55;;;;;;;6.10;0.98;;;;;;;;;;6186090;23;20008;-94
2022/02/18 12:39:41;;;;;;;3.05;0.75;;;;;;;;;;6186772;23;20005;-94
2022/02/18 12:42:10;;;;;;;0.73;0.47;;;;;;;;;;6190639;23;20005;-95
2022/02/18 12:44:52;;;;;;;3.13;0.40;;;;;;;;;;6188275;23;20005;-96
2022/02/18 12:47:25;;;;;;;0.65;0.60;;;;;;;;;;6189636;23;20009;-95
2022/02/18 12:49:53;;;;;;;3.15;0.50;;;;;;;;;;6190895;23;20037;-95
2022/02/18 12:52:20;;;;;;;0.43;0.22;;;;;;;;;;6189567;23;20005;-95
2022/02/18 12:54:55;;;;;;;2.30;0.40;;;;;;;;;;6188975;23;20025;-94
2022/02/18 12:57:23;;;;;;;2.85;0.60;;;;;;;;;;6189102;23;20001;-94
2022/02/18 12:59:50;;;;;;;1.55;0.73;;;;;;;;;;6189630;23;20076;-96
2022/02/18 13:02:35;;;;;;;0.93;0.38;;;;;;;;;;6188714;23;20017;-94
2022/02/18 13:05:05;;;;;;;0.52;0.28;;;;;;;;;;6186961;23;20001;-95
2022/02/18 13:07:39;;;;;;;1.15;0.57;;;;;;;;;;6187220;23;20013;-96
2022/02/18 13:10:06;;;;;;;1.33;0.30;;;;;;;;;;6187468;23;20017;-95
2022/02/18 13:12:33;;;;;;;0.45;0.30;;;;;;;;;;6185481;23;20009;-95
2022/02/18 13:15:09;;;;;;;5.10;0.80;;;;;;;;;;6188019;23;20005;-95
2022/02/18 13:17:36;;;;;;;3.20;0.40;;;;;;;;;;6190602;23;20483;-96
2022/02/18 13:20:02;;;;;;;1.38;0.70;;;;;;;;;;6187611;23;20009;-92
2022/02/18 13:22:35;;;;;;;6.72;0.70;;;;;;;;;;6188616;23;20005;-94
2022/02/18 13:25:20;;;;;;;4.10;0.50;;;;;;;;;;6188250;23;20024;-94
2022/02/18 13:27:46;;;;;;;1.02;0.28;;;;;;;;;;6186336;23;20057;-95
2022/02/18 13:30:12;;;;;;;3.10;0.90;;;;;;;;;;6187550;23;20005;-95
2022/02/18 13:32:38;;;;;;;0.98;0.52;;;;;;;;;;6186460;23;20060;-94
2022/02/18 13:35:05;;;;;;;1.20;0.50;;;;;;;;;;6186845;23;20005;-95
2022/02/18 13:37:34;;;;;;;4.10;0.38;;;;;;;;;;6188194;23;20056;-95
2022/02/18 13:40:00;;;;;;;0.95;0.95;;;;;;;;;;6187419;23;20006;-94
2022/02/18 13:42:26;;;;;;;1.27;0.45;;;;;;;;;;6187112;23;20005;-95
2022/02/18 13:45:01;;;;;;;0.55;0.22;;;;;;;;;;6186030;23;20025;-95
2022/02/18 13:47:32;;;;;;;4.53;0.47;;;;;;;;;;6187370;23;20056;-95
2022/02/18 13:49:58;;;;;;;0.45;0.35;;;;;;;;;;6187065;23;20016;-95
2022/02/18 13:52:25;;;;;;;0.43;0.30;;;;;;;;;;6188203;23;20446;-96
2022/02/18 13:54:51;;;;;;;0.33;0.33;;;;;;;;;;6187867;23;20028;-94
2022/02/18 13:57:22;;;;;;;0.43;0.30;;;;;;;;;;6189019;23;20003;-94
2022/02/18 13:59:49;;;;;;;0.43;0.30;;;;;;;;;;6188560;23;20013;-96
2022/02/18 14:02:24;;;;;;;0.28;0.28;;;;;;;;;;6188117;23;20024;-94
2022/02/18 14:04:51;;;;;;;2.83;0.52;;;;;;;;;;6187881;23;20009;-95
2022/02/18 14:07:25;;;;;;;0.50;0.40;;;;;;;;;;6185879;23;20001;-96
2022/02/18 14:09:52;;;;;;;2.03;0.38;;;;;;;;;;6187821;23;20017;-96
2022/02/18 14:12:19;;;;;;;0.40;0.30;;;;;;;;;;6187414;23;20009;-94
2022/02/18 14:14:57;;;;;;;1.98;0.63;;;;;;;;;;6186371;23;20013;-95
2022/02/18 14:17:25;;;;;;;2.15;0.30;;;;;;;;;;6188407;23;20005;-95
2022/02/18 14:19:54;;;;;;;1.20;0.32;;;;;;;;;;6188865;23;20009;-95
2022/02/18 14:22:26;;;;;;;1.55;0.20;;;;;;;;;;6188776;23;20009;-95
2022/02/18 14:24:52;;;;;;;0.30;0.30;;;;;;;;;;6189961;23;20009;-95
2022/02/18 14:27:20;;;;;;;0.73;0.50;;;;;;;;;;6188102;23;20005;-95
2022/02/18 14:29:46;;;;;;;;;;;;;;;;;;6187964;23;20020;-95
2022/02/18 14:32:12;;;;;;;3.72;0.30;;;;;;;;;;6188661;23;19904;-94
2022/02/18 14:34:39;;;;;;;0.50;0.30;;;;;;;;;;6187707;23;20005;-95
2022/02/18 14:37:06;;;;;;;0.20;0.20;;;;;;;;;;6186783;23;20005;-95
2022/02/18 14:39:39;;;;;;;0.50;0.40;;;;;;;;;;6188848;23;20005;-94
2022/02/18 14:42:17;;;;;;;5.32;0.40;;;;;;;;;;6188751;23;20231;-95
2022/02/18 14:44:45;;;;;;;0.32;0.32;;;;;;;;;;6188876;23;20005;-95
2022/02/18 14:47:12;;;;;;;2.83;0.30;;;;;;;;;;6186976;23;20036;-95
2022/02/18 14:49:38;;;;;;;0.25;0.22;;;;;;;;;;6186306;23;20020;-95
2022/02/18 14:52:04;;;;;;;0.98;0.60;;;;;;;;;;6186377;23;20719;-96
2022/02/18 14:54:30;;;;;;;3.67;0.70;;;;;;;;;;6187845;23;20052;-96
2022/02/18 14:56:56;;;;;;;0.55;0.52;;;;;;;;;;6187476;23;20001;-95
2022/02/18 14:59:22;;;;;;;2.45;0.60;;;;;;;;;;6185597;23;20005;-96
2022/02/18 15:01:48;;;;;;;1.95;0.57;;;;;;;;;;6186344;23;20005;-93
2022/02/18 15:04:14;;;;;;;0.32;0.30;;;;;;;;;;6186392;23;20009;-94
2022/02/18 15:06:40;;;;;;;0.35;0.32;;;;;;;;;;6184423;23;20032;-96
2022/02/18 15:09:07;;;;;;;0.30;0.30;;;;;;;;;;6185809;23;20016;-93
2022/02/18 15:11:34;;;;;;;0.30;0.30;;;;;;;;;;6185795;23;20005;-94
2022/02/18 15:14:00;;;;;;;1.92;0.50;;;;;;;;;;6185485;23;20009;-95
2022/02/18 15:16:26;;;;;;;2.03;0.80;;;;;;;;;;6185915;23;20040;-94
2022/02/18 15:18:52;;;;;;;0.50;0.43;;;;;;;;;;6184478;23;20052;-95
2022/02/18 15:21:18;;;;;;;0.30;0.30;;;;;;;;;;6185639;23;20005;-94
2022/02/18 15:23:45;;;;;;;1.75;0.73;;;;;;;;;;6186009;23;20444;-96
2022/02/18 15:26:12;;;;;;;0.60;0.60;;;;;;;;;;6186068;23;20001;-94
2022/02/18 15:28:42;;;;;;;5.32;1.45;;;;;;;;;;6185015;23;20023;-95
2022/02/18 15:36:39;;;;;;;0.98;0.88;;;;;;;;;;6185986;23;20040;-94
2022/02/18 15:42:08;;;;;;;3.20;0.85;;;;;;;;;;6185804;23;20016;-94
2022/02/18 15:44:38;;;;;;;1.30;0.50;;;;;;;;;;6184077;23;20080;-95
2022/02/18 15:47:07;;;;;;;1.33;0.52;;;;;;;;;;6185002;23;20013;-95
2022/02/18 15:49:34;;;;;;;0.98;0.68;;;;;;;;;;6185558;23;20016;-94
2022/02/18 15:52:01;;;;;;;9.30;0.90;;;;;;;;;;6183964;23;20080;-95
2022/02/18 15:54:27;;;;;;;4.53;0.90;;;;;;;;;;6185462;23;20017;-94
2022/02/18 15:56:54;;;;;;;1.08;0.68;;;;;;;;;;6183841;23;20337;-96
2022/02/18 15:59:20;;;;;;;1.55;1.27;;;;;;;;;;6185671;23;20005;-94
2022/02/18 16:01:46;;;;;;;4.82;1.67;;;;;;;;;;6183460;23;20005;-95
2022/02/18 16:04:24;;;;;;;3.55;2.00;;;;;;;;;;6185728;23;21289;-95
2022/02/18 16:06:49;;;;;;;;;;;17.20;60.60;;;;;;6185906;23;20444;-95